Terminal Aerodrome Forecast
Issued by NWS La Crosse, WI

Home | Current Version | Previous Version | Text Only | Print | Product List | Glossary On
Versions: 1 2 3 4 5 6 7 8 9 10 11 12 13 14 15
000
FTUS43 KARX 191225 AAA
TAFRST
TAF AMD
KRST 191225Z 1912/2012 16008KT P6SM SCT003 SCT200
      TEMPO 1912/1914 3SM BR FEW003
     FM191530 15013KT P6SM SCT180
     FM200300 16012KT P6SM BKN150 WS020/19035KT=

USA.gov is the U.S. government's official web portal to all federal, state and local government web resources and services.